createdAt,value
2023-01-21T00:00:25.941Z,51.179310
2023-01-21T00:01:25.935Z,51.179279
2023-01-21T00:02:26.064Z,51.179272
2023-01-21T00:03:25.961Z,51.179272
2023-01-21T00:04:25.920Z,51.179264
2023-01-21T00:05:25.920Z,51.179276
2023-01-21T00:06:25.894Z,51.179249
2023-01-21T00:07:25.866Z,51.179276
2023-01-21T00:08:25.886Z,51.179245
2023-01-21T00:09:25.852Z,51.179222
2023-01-21T00:10:25.835Z,51.179276
2023-01-21T00:11:25.837Z,51.179253
2023-01-21T00:12:25.813Z,51.179234
2023-01-21T00:13:25.809Z,51.179268
2023-01-21T00:14:25.803Z,51.179264
2023-01-21T00:15:25.889Z,51.179207
2023-01-21T00:16:25.773Z,51.179237
2023-01-21T00:17:25.776Z,51.179279
2023-01-21T00:18:25.746Z,51.179268
2023-01-21T00:19:25.756Z,51.179256
2023-01-21T00:20:25.737Z,51.179272
2023-01-21T00:21:25.717Z,51.179287
2023-01-21T00:22:25.703Z,51.179268
2023-01-21T00:23:25.694Z,51.179256
2023-01-21T00:24:25.699Z,51.179214
2023-01-21T00:25:25.684Z,51.179184
2023-01-21T00:26:25.681Z,51.179207
2023-01-21T00:27:25.692Z,51.179203
2023-01-21T00:28:25.646Z,51.179211
2023-01-21T00:29:25.634Z,51.179272
2023-01-21T00:30:25.637Z,51.179268
2023-01-21T00:31:25.739Z,51.179283
2023-01-21T00:32:25.600Z,51.179283
2023-01-21T00:33:25.590Z,51.179291
2023-01-21T00:34:25.587Z,51.179264
2023-01-21T00:35:25.578Z,51.179230
2023-01-21T00:36:25.571Z,51.179260
2023-01-21T00:37:25.607Z,51.179230
2023-01-21T00:38:25.539Z,51.179237
2023-01-21T00:39:26.572Z,51.179253
2023-01-21T00:40:25.523Z,51.179256
2023-01-21T00:41:25.533Z,51.179268
2023-01-21T00:42:25.500Z,51.179272
2023-01-21T00:43:25.493Z,51.179276
2023-01-21T00:44:25.523Z,51.179291
2023-01-21T00:45:25.489Z,51.179249
2023-01-21T00:46:25.515Z,51.179302
2023-01-21T00:47:25.459Z,51.179260
2023-01-21T00:48:25.511Z,51.179268
2023-01-21T00:49:25.461Z,51.179264
2023-01-21T00:50:25.422Z,51.179272
2023-01-21T00:51:25.448Z,51.179272
2023-01-21T00:52:25.400Z,51.179260
2023-01-21T00:53:25.368Z,51.179245
2023-01-21T00:54:25.422Z,51.179264
2023-01-21T00:55:25.386Z,51.179272
2023-01-21T00:56:25.372Z,51.179283
2023-01-21T00:57:25.393Z,51.179279
2023-01-21T00:58:25.353Z,51.179234
2023-01-21T00:59:25.343Z,51.179241
2023-01-21T01:00:25.308Z,51.179264
2023-01-21T01:01:25.364Z,51.179276
2023-01-21T01:02:25.330Z,51.179268
2023-01-21T01:03:25.282Z,51.179256
2023-01-21T01:04:25.301Z,51.179291
2023-01-21T01:05:25.282Z,51.179283
2023-01-21T01:06:25.252Z,51.179256
2023-01-21T01:07:25.267Z,51.179203
2023-01-21T01:08:25.243Z,51.179188
2023-01-21T01:09:25.221Z,51.179218
2023-01-21T01:10:25.256Z,51.179222
2023-01-21T01:11:25.208Z,51.179241
2023-01-21T01:12:25.170Z,51.179253
2023-01-21T01:13:25.178Z,51.179298
2023-01-21T01:14:25.202Z,51.179245
2023-01-21T01:15:25.167Z,51.179237
2023-01-21T01:16:25.158Z,51.179211
2023-01-21T01:17:25.164Z,51.179207
2023-01-21T01:18:25.164Z,51.179222
2023-01-21T01:19:25.139Z,51.179211
2023-01-21T01:20:25.152Z,51.179222
2023-01-21T01:21:25.106Z,51.179283
2023-01-21T01:22:25.109Z,51.179287
2023-01-21T01:23:25.098Z,51.179272
2023-01-21T01:24:25.104Z,51.179222
2023-01-21T01:25:25.085Z,51.179237
2023-01-21T01:26:25.032Z,51.179302
2023-01-21T01:27:25.059Z,51.179237
2023-01-21T01:28:25.049Z,51.179256
2023-01-21T01:29:25.024Z,51.179333
2023-01-21T01:30:25.025Z,51.179291
2023-01-21T01:31:25.011Z,51.179237
2023-01-21T01:32:25.011Z,51.179230
2023-01-21T01:33:24.975Z,51.179272
2023-01-21T01:34:24.980Z,51.179317
2023-01-21T01:35:24.965Z,51.179310
2023-01-21T01:36:24.944Z,51.179253
2023-01-21T01:37:24.937Z,51.179249
2023-01-21T01:38:24.951Z,51.179317
2023-01-21T01:39:24.930Z,51.179348
2023-01-21T01:40:24.885Z,51.179337
2023-01-21T01:41:25.924Z,51.179348
2023-01-21T01:42:24.884Z,51.179417
2023-01-21T01:43:24.883Z,51.179317
2023-01-21T01:44:24.897Z,51.179283
2023-01-21T01:45:24.854Z,51.179314
2023-01-21T01:46:24.995Z,51.179291
2023-01-21T01:47:24.848Z,51.179295
2023-01-21T01:48:24.842Z,51.179344
2023-01-21T01:49:24.834Z,51.179348
2023-01-21T01:50:24.791Z,51.179333
2023-01-21T01:51:24.802Z,51.179382
2023-01-21T01:52:24.807Z,51.179382
2023-01-21T01:53:24.783Z,51.179367
2023-01-21T01:54:24.762Z,51.179268
2023-01-21T01:55:24.749Z,51.179211
2023-01-21T01:56:24.762Z,51.179276
2023-01-21T01:57:24.715Z,51.179314
2023-01-21T01:58:24.751Z,51.179340
2023-01-21T01:59:24.730Z,51.179317
2023-01-21T02:00:24.695Z,51.179272
2023-01-21T02:01:24.725Z,51.179283
2023-01-21T02:02:24.702Z,51.179241
2023-01-21T02:03:24.677Z,51.179234
2023-01-21T02:04:24.659Z,51.179245
2023-01-21T02:05:24.651Z,51.179272
2023-01-21T02:06:25.622Z,51.179253
2023-01-21T02:07:24.632Z,51.179230
2023-01-21T02:08:24.634Z,51.179203
2023-01-21T02:09:24.626Z,51.179192
2023-01-21T02:10:24.592Z,51.179211
2023-01-21T02:11:24.608Z,51.179218
2023-01-21T02:12:24.596Z,51.179180
2023-01-21T02:13:24.559Z,51.179150
2023-01-21T02:14:24.571Z,51.179165
2023-01-21T02:15:24.568Z,51.179222
2023-01-21T02:16:24.574Z,51.179230
2023-01-21T02:17:24.539Z,51.179234
2023-01-21T02:18:24.552Z,51.179211
2023-01-21T02:19:24.510Z,51.179176
2023-01-21T02:20:24.504Z,51.179199
2023-01-21T02:21:24.544Z,51.179199
2023-01-21T02:22:24.470Z,51.179150
2023-01-21T02:23:24.476Z,51.179146
2023-01-21T02:24:24.479Z,51.179184
2023-01-21T02:25:24.448Z,51.179230
2023-01-21T02:26:24.436Z,51.179226
2023-01-21T02:27:30.406Z,51.179203
2023-01-21T02:28:26.437Z,51.179199
2023-01-21T02:29:24.384Z,51.179207
2023-01-21T02:30:24.424Z,51.179237
2023-01-21T02:31:24.439Z,51.179199
2023-01-21T02:32:24.365Z,51.179169
2023-01-21T02:33:24.364Z,51.179150
2023-01-21T02:34:24.368Z,51.179161
2023-01-21T02:35:24.374Z,51.179260
2023-01-21T02:36:24.315Z,51.179256
2023-01-21T02:37:24.344Z,51.179234
2023-01-21T02:38:24.296Z,51.179234
2023-01-21T02:39:24.295Z,51.179237
2023-01-21T02:40:24.331Z,51.179230
2023-01-21T02:41:24.330Z,51.179241
2023-01-21T02:42:24.255Z,51.179260
2023-01-21T02:43:24.258Z,51.179241
2023-01-21T02:44:24.276Z,51.179256
2023-01-21T02:45:24.261Z,51.179272
2023-01-21T02:46:24.266Z,51.179276
2023-01-21T02:47:24.241Z,51.179291
2023-01-21T02:48:24.209Z,51.179287
2023-01-21T02:49:24.225Z,51.179237
2023-01-21T02:50:24.226Z,51.179237
2023-01-21T02:51:24.190Z,51.179234
2023-01-21T02:52:24.158Z,51.179256
2023-01-21T02:53:24.163Z,51.179226
2023-01-21T02:54:56.072Z,51.179188
2023-01-21T02:55:24.150Z,51.179192
2023-01-21T02:56:24.150Z,51.179199
2023-01-21T02:57:24.125Z,51.179211
2023-01-21T02:58:24.135Z,51.179211
2023-01-21T02:59:24.109Z,51.179245
2023-01-21T03:00:24.112Z,51.179268
2023-01-21T03:01:24.074Z,51.179272
2023-01-21T03:02:24.102Z,51.179264
2023-01-21T03:03:24.093Z,51.179222
2023-01-21T03:04:24.047Z,51.179234
2023-01-21T03:05:24.045Z,51.179222
2023-01-21T03:06:24.041Z,51.179237
2023-01-21T03:07:24.060Z,51.179192
2023-01-21T03:08:24.072Z,51.179192
2023-01-21T03:09:24.024Z,51.179184
2023-01-21T03:10:24.026Z,51.179192
2023-01-21T03:11:23.996Z,51.179157
2023-01-21T03:12:24.001Z,51.179173
2023-01-21T03:13:23.992Z,51.179192
2023-01-21T03:14:23.967Z,51.179211
2023-01-21T03:15:23.956Z,51.179211
2023-01-21T03:16:23.988Z,51.179226
2023-01-21T03:17:23.915Z,51.179241
2023-01-21T03:18:23.939Z,51.179226
2023-01-21T03:19:23.926Z,51.179211
2023-01-21T03:20:23.885Z,51.179230
2023-01-21T03:21:23.878Z,51.179241
2023-01-21T03:22:23.897Z,51.179234
2023-01-21T03:23:23.892Z,51.179222
2023-01-21T03:24:23.863Z,51.179234
2023-01-21T03:25:23.848Z,51.179230
2023-01-21T03:26:23.839Z,51.179218
2023-01-21T03:27:23.884Z,51.179256
2023-01-21T03:28:23.816Z,51.179295
2023-01-21T03:29:23.836Z,51.179310
2023-01-21T03:30:23.816Z,51.179279
2023-01-21T03:31:23.828Z,51.179260
2023-01-21T03:32:23.809Z,51.179260
2023-01-21T03:33:23.769Z,51.179234
2023-01-21T03:34:23.785Z,51.179214
2023-01-21T03:35:23.751Z,51.179249
2023-01-21T03:36:23.738Z,51.179264
2023-01-21T03:37:23.743Z,51.179276
2023-01-21T03:38:23.726Z,51.179272
2023-01-21T03:39:23.692Z,51.179276
2023-01-21T03:40:23.723Z,51.179302
2023-01-21T03:41:23.673Z,51.179253
2023-01-21T03:42:23.719Z,51.179253
2023-01-21T03:43:23.659Z,51.179279
2023-01-21T03:44:23.673Z,51.179249
2023-01-21T03:45:23.659Z,51.179249
2023-01-21T03:46:23.633Z,51.179276
2023-01-21T03:47:23.643Z,51.179279
2023-01-21T03:48:23.640Z,51.179268
2023-01-21T03:49:23.619Z,51.179264
2023-01-21T03:50:23.586Z,51.179264
2023-01-21T03:51:23.621Z,51.179321
2023-01-21T03:52:23.578Z,51.179310
2023-01-21T03:53:23.572Z,51.179268
2023-01-21T03:54:23.535Z,51.179264
2023-01-21T03:55:24.542Z,51.179283
2023-01-21T03:56:23.542Z,51.179302
2023-01-21T03:57:23.542Z,51.179283
2023-01-21T03:58:23.508Z,51.179291
2023-01-21T03:59:23.493Z,51.179306
2023-01-21T04:00:23.528Z,51.179283
2023-01-21T04:01:23.482Z,51.179234
2023-01-21T04:02:23.502Z,51.179214
2023-01-21T04:03:23.465Z,51.179237
2023-01-21T04:04:23.466Z,51.179287
2023-01-21T04:05:23.478Z,51.179310
2023-01-21T04:06:23.429Z,51.179317
2023-01-21T04:07:23.440Z,51.179272
2023-01-21T04:08:23.408Z,51.179279
2023-01-21T04:09:23.396Z,51.179222
2023-01-21T04:10:23.418Z,51.179241
2023-01-21T04:11:23.419Z,51.179298
2023-01-21T04:12:23.363Z,51.179295
2023-01-21T04:13:23.359Z,51.179295
2023-01-21T04:14:23.591Z,51.179295
2023-01-21T04:15:23.341Z,51.179226
2023-01-21T04:16:23.347Z,51.179264
2023-01-21T04:17:23.320Z,51.179245
2023-01-21T04:18:23.307Z,51.179249
2023-01-21T04:19:23.289Z,51.179241
2023-01-21T04:20:23.280Z,51.179230
2023-01-21T04:21:23.281Z,51.179249
2023-01-21T04:22:23.283Z,51.179256
2023-01-21T04:23:23.255Z,51.179287
2023-01-21T04:24:23.290Z,51.179241
2023-01-21T04:25:23.242Z,51.179222
2023-01-21T04:26:24.243Z,51.179234
2023-01-21T04:27:23.240Z,51.179321
2023-01-21T04:28:23.206Z,51.179321
2023-01-21T04:29:23.219Z,51.179287
2023-01-21T04:30:23.198Z,51.179298
2023-01-21T04:31:24.038Z,51.179279
2023-01-21T04:32:23.170Z,51.179241
2023-01-21T04:33:23.160Z,51.179237
2023-01-21T04:34:23.168Z,51.179268
2023-01-21T04:35:23.148Z,51.179283
2023-01-21T04:36:23.128Z,51.179283
2023-01-21T04:37:23.118Z,51.179279
2023-01-21T04:38:23.117Z,51.179268
2023-01-21T04:39:23.102Z,51.179264
2023-01-21T04:40:23.092Z,51.179291
2023-01-21T04:41:25.349Z,51.179276
2023-01-21T04:42:24.075Z,51.179302
2023-01-21T04:43:23.055Z,51.179298
2023-01-21T04:44:23.042Z,51.179272
2023-01-21T04:45:23.050Z,51.179260
2023-01-21T04:46:23.038Z,51.179245
2023-01-21T04:47:23.024Z,51.179272
2023-01-21T04:48:23.047Z,51.179291
2023-01-21T04:49:24.000Z,51.179268
2023-01-21T04:50:22.994Z,51.179237
2023-01-21T04:51:23.039Z,51.179253
2023-01-21T04:52:22.972Z,51.179260
2023-01-21T04:53:22.967Z,51.179268
2023-01-21T04:54:22.943Z,51.179245
2023-01-21T04:55:25.346Z,51.179279
2023-01-21T04:56:22.945Z,51.179276
2023-01-21T04:57:22.908Z,51.179268
2023-01-21T04:58:22.933Z,51.179249
2023-01-21T04:59:22.905Z,51.179249
2023-01-21T05:00:22.883Z,51.179253
2023-01-21T05:01:22.925Z,51.179287
2023-01-21T05:02:22.949Z,51.179298
2023-01-21T05:03:22.883Z,51.179283
2023-01-21T05:04:22.851Z,51.179245
2023-01-21T05:05:22.846Z,51.179253
2023-01-21T05:06:22.856Z,51.179237
2023-01-21T05:07:22.832Z,51.179245
2023-01-21T05:08:22.817Z,51.179214
2023-01-21T05:09:22.847Z,51.179211
2023-01-21T05:10:22.794Z,51.179253
2023-01-21T05:11:22.783Z,51.179253
2023-01-21T05:12:22.763Z,51.179253
2023-01-21T05:13:22.753Z,51.179241
2023-01-21T05:14:22.739Z,51.179226
2023-01-21T05:15:22.732Z,51.179245
2023-01-21T05:16:22.767Z,51.179249
2023-01-21T05:17:22.703Z,51.179256
2023-01-21T05:18:22.698Z,51.179268
2023-01-21T05:19:22.710Z,51.179253
2023-01-21T05:20:22.676Z,51.179245
2023-01-21T05:21:22.696Z,51.179234
2023-01-21T05:22:22.675Z,51.179245
2023-01-21T05:23:22.659Z,51.179237
2023-01-21T05:24:22.647Z,51.179249
2023-01-21T05:25:22.638Z,51.179287
2023-01-21T05:26:22.640Z,51.179264
2023-01-21T05:27:22.621Z,51.179241
2023-01-21T05:28:22.599Z,51.179222
2023-01-21T05:29:22.630Z,51.179260
2023-01-21T05:30:22.616Z,51.179241
2023-01-21T05:31:22.796Z,51.179237
2023-01-21T05:32:22.578Z,51.179245
2023-01-21T05:33:22.573Z,51.179260
2023-01-21T05:34:22.561Z,51.179283
2023-01-21T05:35:22.543Z,51.179264
2023-01-21T05:36:22.567Z,51.179249
2023-01-21T05:37:22.526Z,51.179253
2023-01-21T05:38:22.523Z,51.179245
2023-01-21T05:39:22.495Z,51.179249
2023-01-21T05:40:22.502Z,51.179268
2023-01-21T05:41:22.472Z,51.179264
2023-01-21T05:42:22.482Z,51.179237
2023-01-21T05:43:22.463Z,51.179192
2023-01-21T05:44:22.446Z,51.179226
2023-01-21T05:45:22.460Z,51.179230
2023-01-21T05:46:22.440Z,51.179260
2023-01-21T05:47:22.417Z,51.179279
2023-01-21T05:48:22.414Z,51.179302
2023-01-21T05:49:22.406Z,51.179314
2023-01-21T05:50:23.402Z,51.179291
2023-01-21T05:51:22.433Z,51.179272
2023-01-21T05:52:22.381Z,51.179241
2023-01-21T05:53:22.367Z,51.179241
2023-01-21T05:54:22.368Z,51.179237
2023-01-21T05:55:22.331Z,51.179260
2023-01-21T05:56:22.356Z,51.179264
2023-01-21T05:57:22.309Z,51.179264
2023-01-21T05:58:22.332Z,51.179260
2023-01-21T05:59:22.327Z,51.179264
2023-01-21T06:00:22.295Z,51.179237
2023-01-21T06:01:22.284Z,51.179253
2023-01-21T06:02:22.317Z,51.179245
2023-01-21T06:03:22.338Z,51.179222
2023-01-21T06:04:23.928Z,51.179195
2023-01-21T06:05:23.233Z,51.179192
2023-01-21T06:06:22.240Z,51.179188
2023-01-21T06:07:22.232Z,51.179214
2023-01-21T06:08:22.211Z,51.179176
2023-01-21T06:09:22.185Z,51.179173
2023-01-21T06:10:22.197Z,51.179226
2023-01-21T06:11:22.176Z,51.179203
2023-01-21T06:12:23.890Z,51.179184
2023-01-21T06:13:22.189Z,51.179203
2023-01-21T06:14:22.139Z,51.179218
2023-01-21T06:15:22.143Z,51.179199
2023-01-21T06:16:22.114Z,51.179226
2023-01-21T06:17:22.119Z,51.179222
2023-01-21T06:18:22.111Z,51.179192
2023-01-21T06:19:22.114Z,51.179192
2023-01-21T06:20:22.106Z,51.179214
2023-01-21T06:21:22.068Z,51.179218
2023-01-21T06:22:22.087Z,51.179245
2023-01-21T06:23:22.060Z,51.179199
2023-01-21T06:24:22.066Z,51.179214
2023-01-21T06:25:22.027Z,51.179184
2023-01-21T06:26:22.020Z,51.179234
2023-01-21T06:27:22.021Z,51.179192
2023-01-21T06:28:21.990Z,51.179176
2023-01-21T06:29:21.982Z,51.179195
2023-01-21T06:30:21.981Z,51.179211
2023-01-21T06:31:22.036Z,51.179195
2023-01-21T06:32:21.956Z,51.179184
2023-01-21T06:33:21.948Z,51.179188
2023-01-21T06:34:21.934Z,51.179176
2023-01-21T06:35:21.909Z,51.179222
2023-01-21T06:36:21.911Z,51.179230
2023-01-21T06:37:21.916Z,51.179218
2023-01-21T06:38:21.893Z,51.179211
2023-01-21T06:39:21.886Z,51.179226
2023-01-21T06:40:21.874Z,51.179207
2023-01-21T06:41:21.863Z,51.179203
2023-01-21T06:42:21.831Z,51.179218
2023-01-21T06:43:21.843Z,51.179173
2023-01-21T06:44:21.875Z,51.179173
2023-01-21T06:45:21.811Z,51.179169
2023-01-21T06:46:21.994Z,51.179218
2023-01-21T06:47:21.815Z,51.179214
2023-01-21T06:48:21.783Z,51.179222
2023-01-21T06:49:21.763Z,51.179237
2023-01-21T06:50:21.764Z,51.179230
2023-01-21T06:51:21.893Z,51.179237
2023-01-21T06:52:21.740Z,51.179241
2023-01-21T06:53:21.744Z,51.179234
2023-01-21T06:54:21.713Z,51.179222
2023-01-21T06:55:21.701Z,51.179218
2023-01-21T06:56:21.708Z,51.179230
2023-01-21T06:57:21.681Z,51.179203
2023-01-21T06:58:21.685Z,51.179146
2023-01-21T06:59:21.651Z,51.179180
2023-01-21T07:00:21.652Z,51.179188
2023-01-21T07:01:21.691Z,51.179195
2023-01-21T07:02:21.630Z,51.179218
2023-01-21T07:03:21.636Z,51.179207
2023-01-21T07:04:21.598Z,51.179203
2023-01-21T07:05:21.592Z,51.179222
2023-01-21T07:06:21.580Z,51.179180
2023-01-21T07:07:21.576Z,51.179184
2023-01-21T07:08:21.581Z,51.179211
2023-01-21T07:09:21.565Z,51.179222
2023-01-21T07:10:21.550Z,51.179230
2023-01-21T07:11:21.581Z,51.179245
2023-01-21T07:12:21.515Z,51.179237
2023-01-21T07:13:21.520Z,51.179272
2023-01-21T07:14:21.505Z,51.179283
2023-01-21T07:15:21.507Z,51.179268
2023-01-21T07:16:21.489Z,51.179260
2023-01-21T07:17:21.468Z,51.179184
2023-01-21T07:18:21.456Z,51.179226
2023-01-21T07:19:21.456Z,51.179199
2023-01-21T07:20:21.466Z,51.179047
2023-01-21T07:21:21.436Z,51.179119
2023-01-21T07:22:21.443Z,51.179176
2023-01-21T07:23:21.407Z,51.179211
2023-01-21T07:24:21.393Z,51.179222
2023-01-21T07:25:21.385Z,51.179256
2023-01-21T07:26:21.385Z,51.179237
2023-01-21T07:27:21.374Z,51.179214
2023-01-21T07:28:21.349Z,51.179241
2023-01-21T07:29:21.340Z,51.179226
2023-01-21T07:30:21.358Z,51.179218
2023-01-21T07:31:21.446Z,51.179207
2023-01-21T07:32:21.335Z,51.179218
2023-01-21T07:33:21.315Z,51.179199
2023-01-21T07:34:21.279Z,51.179176
2023-01-21T07:35:21.282Z,51.179195
2023-01-21T07:36:21.294Z,51.179245
2023-01-21T07:37:21.273Z,51.179241
2023-01-21T07:38:21.258Z,51.179253
2023-01-21T07:39:21.241Z,51.179283
2023-01-21T07:40:21.233Z,51.179260
2023-01-21T07:41:21.227Z,51.179226
2023-01-21T07:42:21.207Z,51.179211
2023-01-21T07:43:21.194Z,51.179203
2023-01-21T07:44:21.174Z,51.179203
2023-01-21T07:45:21.186Z,51.179234
2023-01-21T07:46:21.209Z,51.179237
2023-01-21T07:47:21.162Z,51.179256
2023-01-21T07:48:21.132Z,51.179249
2023-01-21T07:49:21.134Z,51.179253
2023-01-21T07:50:21.119Z,51.179264
2023-01-21T07:51:21.248Z,51.179298
2023-01-21T07:52:21.092Z,51.179306
2023-01-21T07:53:21.097Z,51.179272
2023-01-21T07:54:21.072Z,51.179199
2023-01-21T07:55:21.069Z,51.179195
2023-01-21T07:56:21.068Z,51.179234
2023-01-21T07:57:21.037Z,51.179264
2023-01-21T07:58:21.037Z,51.179241
2023-01-21T07:59:21.040Z,51.179173
2023-01-21T08:00:21.012Z,51.179127
2023-01-21T08:01:22.649Z,51.179199
2023-01-21T08:02:21.145Z,51.179249
2023-01-21T08:03:20.980Z,51.179256
2023-01-21T08:04:20.965Z,51.179249
2023-01-21T08:05:20.998Z,51.179222
2023-01-21T08:06:20.949Z,51.179173
2023-01-21T08:07:20.962Z,51.179180
2023-01-21T08:08:20.916Z,51.179218
2023-01-21T08:09:20.927Z,51.179180
2023-01-21T08:10:20.914Z,51.179180
2023-01-21T08:11:20.894Z,51.179157
2023-01-21T08:12:20.909Z,51.179211
2023-01-21T08:13:20.886Z,51.179188
2023-01-21T08:14:20.858Z,51.179188
2023-01-21T08:15:20.841Z,51.179214
2023-01-21T08:16:20.896Z,51.179195
2023-01-21T08:17:20.894Z,51.179230
2023-01-21T08:18:20.798Z,51.179218
2023-01-21T08:19:20.823Z,51.179230
2023-01-21T08:20:20.799Z,51.179253
2023-01-21T08:21:20.782Z,51.179276
2023-01-21T08:22:20.783Z,51.179234
2023-01-21T08:23:20.774Z,51.179207
2023-01-21T08:24:20.755Z,51.179211
2023-01-21T08:25:20.720Z,51.179214
2023-01-21T08:26:20.752Z,51.179203
2023-01-21T08:27:20.700Z,51.179184
2023-01-21T08:28:20.716Z,51.179153
2023-01-21T08:29:20.723Z,51.179192
2023-01-21T08:30:21.687Z,51.179264
2023-01-21T08:31:20.690Z,51.179260
2023-01-21T08:32:20.654Z,51.179253
2023-01-21T08:33:20.680Z,51.179184
2023-01-21T08:34:20.658Z,51.179142
2023-01-21T08:35:20.647Z,51.179192
2023-01-21T08:36:20.638Z,51.179199
2023-01-21T08:37:20.609Z,51.179195
2023-01-21T08:38:20.608Z,51.179211
2023-01-21T08:39:20.616Z,51.179211
2023-01-21T08:40:20.609Z,51.179214
2023-01-21T08:41:20.586Z,51.179218
2023-01-21T08:42:20.570Z,51.179195
2023-01-21T08:43:20.548Z,51.179188
2023-01-21T08:44:20.541Z,51.179184
2023-01-21T08:45:21.523Z,51.179218
2023-01-21T08:46:20.531Z,51.179237
2023-01-21T08:47:20.500Z,51.179245
2023-01-21T08:48:20.501Z,51.179253
2023-01-21T08:49:20.492Z,51.179226
2023-01-21T08:50:20.450Z,51.179207
2023-01-21T08:51:20.594Z,51.179214
2023-01-21T08:52:20.483Z,51.179230
2023-01-21T08:53:20.432Z,51.179234
2023-01-21T08:54:20.437Z,51.179222
2023-01-21T08:55:52.342Z,51.179207
2023-01-21T08:56:20.437Z,51.179207
2023-01-21T08:57:20.404Z,51.179184
2023-01-21T08:58:20.382Z,51.179184
2023-01-21T08:59:20.394Z,51.179192
2023-01-21T09:00:20.389Z,51.179165
2023-01-21T09:01:20.355Z,51.179207
2023-01-21T09:02:20.418Z,51.179222
2023-01-21T09:03:20.373Z,51.179218
2023-01-21T09:04:20.330Z,51.179207
2023-01-21T09:05:20.295Z,51.179214
2023-01-21T09:06:20.305Z,51.179214
2023-01-21T09:07:20.308Z,51.179199
2023-01-21T09:08:20.270Z,51.179188
2023-01-21T09:09:20.276Z,51.179199
2023-01-21T09:10:20.263Z,51.179169
2023-01-21T09:11:20.248Z,51.179203
2023-01-21T09:12:20.227Z,51.179222
2023-01-21T09:13:20.239Z,51.179234
2023-01-21T09:14:20.272Z,51.179211
2023-01-21T09:15:20.205Z,51.179214
2023-01-21T09:16:20.252Z,51.179256
2023-01-21T09:17:20.194Z,51.179241
2023-01-21T09:18:20.195Z,51.179199
2023-01-21T09:19:20.148Z,51.179184
2023-01-21T09:20:20.200Z,51.179180
2023-01-21T09:21:20.148Z,51.179218
2023-01-21T09:22:20.125Z,51.179245
2023-01-21T09:23:20.137Z,51.179264
2023-01-21T09:24:20.116Z,51.179218
2023-01-21T09:25:23.075Z,51.179207
2023-01-21T09:26:21.084Z,51.179241
2023-01-21T09:27:20.086Z,51.179237
2023-01-21T09:28:20.067Z,51.179253
2023-01-21T09:29:20.076Z,51.179241
2023-01-21T09:30:20.139Z,51.179199
2023-01-21T09:31:20.022Z,51.179192
2023-01-21T09:32:20.066Z,51.179199
2023-01-21T09:33:20.027Z,51.179199
2023-01-21T09:34:20.002Z,51.179203
2023-01-21T09:35:19.996Z,51.179203
2023-01-21T09:36:19.983Z,51.179207
2023-01-21T09:37:19.971Z,51.179222
2023-01-21T09:38:19.966Z,51.179222
2023-01-21T09:39:19.968Z,51.179218
2023-01-21T09:40:20.063Z,51.179211
2023-01-21T09:41:19.925Z,51.179207
2023-01-21T09:42:19.916Z,51.179211
2023-01-21T09:43:19.919Z,51.179203
2023-01-21T09:44:19.913Z,51.179211
2023-01-21T09:45:19.903Z,51.179222
2023-01-21T09:46:19.950Z,51.179241
2023-01-21T09:47:19.872Z,51.179260
2023-01-21T09:48:19.892Z,51.179268
2023-01-21T09:49:19.846Z,51.179245
2023-01-21T09:50:19.873Z,51.179230
2023-01-21T09:51:20.023Z,51.179192
2023-01-21T09:52:19.786Z,51.179237
2023-01-21T09:53:19.788Z,51.179218
2023-01-21T09:54:19.825Z,51.179184
2023-01-21T09:55:20.025Z,51.179199
2023-01-21T09:56:19.764Z,51.179207
2023-01-21T09:57:19.767Z,51.179192
2023-01-21T09:58:19.739Z,51.179199
2023-01-21T09:59:21.095Z,51.179176
2023-01-21T10:00:20.731Z,51.179184
2023-01-21T10:01:19.752Z,51.179180
2023-01-21T10:02:19.697Z,51.179188
2023-01-21T10:03:19.707Z,51.179131
2023-01-21T10:04:19.729Z,51.179146
2023-01-21T10:05:19.668Z,51.179169
2023-01-21T10:06:19.679Z,51.179169
2023-01-21T10:07:19.660Z,51.179214
2023-01-21T10:08:19.633Z,51.179188
2023-01-21T10:09:19.642Z,51.179207
2023-01-21T10:10:19.614Z,51.179226
2023-01-21T10:11:19.597Z,51.179245
2023-01-21T10:12:19.616Z,51.179249
2023-01-21T10:13:19.585Z,51.179184
2023-01-21T10:14:19.593Z,51.179161
2023-01-21T10:15:19.722Z,51.179180
2023-01-21T10:16:19.577Z,51.179207
2023-01-21T10:17:19.559Z,51.179195
2023-01-21T10:18:19.540Z,51.179218
2023-01-21T10:19:19.571Z,51.179241
2023-01-21T10:20:19.503Z,51.179207
2023-01-21T10:21:19.519Z,51.179211
2023-01-21T10:22:19.486Z,51.179165
2023-01-21T10:23:19.498Z,51.179146
2023-01-21T10:24:19.472Z,51.179161
2023-01-21T10:25:19.635Z,51.179173
2023-01-21T10:26:19.446Z,51.179169
2023-01-21T10:27:19.435Z,51.179207
2023-01-21T10:28:19.416Z,51.179207
2023-01-21T10:29:19.402Z,51.179188
2023-01-21T10:30:19.401Z,51.179195
2023-01-21T10:31:19.545Z,51.179184
2023-01-21T10:32:19.375Z,51.179176
2023-01-21T10:33:19.377Z,51.179188
2023-01-21T10:34:19.383Z,51.179184
2023-01-21T10:35:19.463Z,51.179188
2023-01-21T10:36:19.344Z,51.179173
2023-01-21T10:37:19.321Z,51.179142
2023-01-21T10:38:19.312Z,51.179108
2023-01-21T10:39:19.294Z,51.179134
2023-01-21T10:40:19.300Z,51.179176
2023-01-21T10:41:19.295Z,51.179165
2023-01-21T10:42:19.293Z,51.179173
2023-01-21T10:43:19.259Z,51.179165
2023-01-21T10:44:19.288Z,51.179173
2023-01-21T10:45:19.560Z,51.179195
2023-01-21T10:46:19.255Z,51.179218
2023-01-21T10:47:19.231Z,51.179176
2023-01-21T10:48:19.212Z,51.179165
2023-01-21T10:49:19.195Z,51.179195
2023-01-21T10:50:19.201Z,51.179211
2023-01-21T10:51:19.237Z,51.179211
2023-01-21T10:52:19.176Z,51.179195
2023-01-21T10:53:19.156Z,51.179173
2023-01-21T10:54:20.946Z,51.179176
2023-01-21T10:55:19.589Z,51.179195
2023-01-21T10:56:19.149Z,51.179192
2023-01-21T10:57:19.106Z,51.179188
2023-01-21T10:58:19.093Z,51.179195
2023-01-21T10:59:19.094Z,51.179192
2023-01-21T11:00:19.071Z,51.179199
2023-01-21T11:01:19.074Z,51.179188
2023-01-21T11:02:19.077Z,51.179207
2023-01-21T11:03:19.070Z,51.179207
2023-01-21T11:04:19.038Z,51.179150
2023-01-21T11:05:19.384Z,51.179176
2023-01-21T11:06:19.013Z,51.179176
2023-01-21T11:07:19.004Z,51.179188
2023-01-21T11:08:19.015Z,51.179195
2023-01-21T11:09:18.987Z,51.179237
2023-01-21T11:10:18.972Z,51.179237
2023-01-21T11:11:18.972Z,51.179237
2023-01-21T11:12:18.975Z,51.179234
2023-01-21T11:13:18.966Z,51.179218
2023-01-21T11:14:21.163Z,51.179245
2023-01-21T11:15:20.203Z,51.179218
2023-01-21T11:16:18.926Z,51.179211
2023-01-21T11:17:18.931Z,51.179222
2023-01-21T11:18:18.917Z,51.179260
2023-01-21T11:19:18.874Z,51.179218
2023-01-21T11:20:21.634Z,51.179218
2023-01-21T11:21:19.893Z,51.179207
2023-01-21T11:22:18.855Z,51.179192
2023-01-21T11:23:18.829Z,51.179207
2023-01-21T11:24:18.871Z,51.179214